Camden, Tennessee
Current Conditions -  °F | °C
As of 4:35 AM on Sunday 26 Oct 2014 (Local Time) from KPHT Reporting Station
Overcast Overcast  
Wind Chill: 52°   Ceiling: 100
Heat Index: 52°   Visibility: 0.25mi
Dew Point: 52°   Wind: 0mph
Humidity: 100%   Direction: NA
Pressure: 30.01"   Gusts: NA
Location:  36.06°N, 88.1°W
Report Text: KPHT 260935Z AUTO 00000KT 1/4SM OVC001 11/11 A3001 RMK
Loading
Personal Weather Stations






























Interactive Weather Map
Tropical Storm Tracking
New forecast layout! Learn more

10-Day Weather Forecast

Advertisements
Track Severe Weather on mobile